.
WxDataArchive / Data Records for 2011-02-06
2011-02-05 February 2011 2011-02-07

Data Records for Sunday, 06 February 2011

Time	Temp	Chill	HIndex	Humid	Dewpt	 Wind 	HiWind	WindDir	Rain 	Barom 
-----	----	-----	------	-----	-----	------	------	-------	-----	----- 
00:00	24.5	24.5	24.5	89	21.7	1	2	248	0.00	29.866 
00:05	24.7	24.7	24.7	89	21.9	1	2	248	0.00	29.866 
00:10	24.7	24.7	24.7	89	21.9	1	3	248	0.00	29.866 
00:15	24.8	24.8	24.8	89	22.0	1	3	248	0.00	29.873 
00:20	24.8	24.8	24.8	89	22.0	0	2	248	0.00	29.873 
00:25	25.0	25.0	25.0	89	22.2	0	1	248	0.00	29.873 
00:30	25.0	25.0	25.0	89	22.2	0	2	248	0.00	29.881 
00:35	25.0	25.0	25.0	89	22.2	0	2	248	0.00	29.881 
00:40	25.0	25.0	25.0	89	22.2	0	2	248	0.00	29.881 
00:45	25.1	25.1	25.1	89	22.3	0	1	248	0.00	29.885 
00:50	25.1	25.1	25.1	89	22.3	0	2	248	0.00	29.885 
00:55	25.1	25.1	25.1	89	22.3	0	2	248	0.00	29.885 
01:00	25.3	25.3	25.3	89	22.5	0	1	248	0.00	29.892 
01:05	25.3	25.3	25.3	89	22.5	0	1	248	0.00	29.892 
01:10	25.3	25.3	25.3	89	22.5	0	2	248	0.00	29.892 
01:15	25.3	25.3	25.3	89	22.5	0	1	248	0.00	29.894 
01:20	25.3	25.3	25.3	89	22.5	0	1	248	0.00	29.894 
01:25	25.3	25.3	25.3	89	22.5	0	1	248	0.00	29.894 
01:30	25.4	25.4	25.4	89	22.6	0	2	248	0.00	29.893 
01:35	25.4	25.4	25.4	90	22.9	0	1	248	0.00	29.893 
01:40	25.4	25.4	25.4	90	22.9	0	1	248	0.00	29.893 
01:45	25.4	25.4	25.4	90	22.9	0	1	248	0.00	29.891 
01:50	25.4	25.4	25.4	90	22.9	0	1	248	0.00	29.891 
01:55	25.4	25.4	25.4	90	22.9	0	1	248	0.00	29.891 
02:00	25.4	25.4	25.4	90	22.9	0	0	---	0.00	29.895 
02:05	25.4	25.4	25.4	90	22.9	0	0	---	0.00	29.895 
02:10	25.4	25.4	25.4	90	22.9	0	1	248	0.00	29.895 
02:15	25.4	25.4	25.4	90	22.9	0	1	248	0.00	29.892 
02:20	25.4	25.4	25.4	90	22.9	0	0	---	0.00	29.892 
02:25	25.4	25.4	25.4	90	22.9	0	1	248	0.00	29.892 
02:30	25.6	25.6	25.6	90	23.1	0	0	---	0.00	29.892 
02:35	25.6	25.6	25.6	90	23.1	0	0	---	0.00	29.892 
02:40	25.6	25.6	25.6	91	23.3	0	1	248	0.00	29.892 
02:45	25.7	25.7	25.7	91	23.4	0	1	248	0.00	29.891 
02:50	25.7	25.7	25.7	91	23.4	0	0	---	0.00	29.891 
02:55	25.7	25.7	25.7	91	23.4	0	0	---	0.00	29.891 
03:00	25.7	25.7	25.7	91	23.4	0	1	248	0.00	29.894 
03:05	25.7	25.7	25.7	91	23.4	0	1	248	0.00	29.894 
03:10	25.7	25.7	25.7	92	23.7	0	1	248	0.00	29.894 
03:15	25.7	25.7	25.7	92	23.7	0	0	---	0.00	29.899 
03:20	25.8	25.8	25.8	92	23.8	0	0	---	0.00	29.899 
03:25	25.8	25.8	25.8	92	23.8	0	0	---	0.00	29.899 
03:30	25.8	25.8	25.8	92	23.8	0	0	---	0.00	29.903 
03:35	25.8	25.8	25.8	92	23.8	0	0	---	0.00	29.903 
03:40	25.8	25.8	25.8	92	23.8	0	0	---	0.00	29.903 
03:45	25.8	25.8	25.8	92	23.8	0	1	248	0.00	29.898 
03:50	25.8	25.8	25.8	92	23.8	0	0	---	0.00	29.898 
03:55	25.8	25.8	25.8	92	23.8	0	0	---	0.00	29.898 
04:00	25.8	25.8	25.8	92	23.8	0	0	---	0.00	29.895 
04:05	25.8	25.8	25.8	92	23.8	0	0	---	0.00	29.895 
04:10	25.8	25.8	25.8	92	23.8	0	0	---	0.00	29.895 
04:15	25.8	25.8	25.8	92	23.8	0	0	---	0.00	29.901 
04:20	25.8	25.8	25.8	92	23.8	0	0	---	0.00	29.901 
04:25	26.0	26.0	26.0	92	24.0	0	0	---	0.00	29.901 
04:30	26.0	26.0	26.0	92	24.0	0	0	---	0.00	29.905 
04:35	26.1	26.1	26.1	92	24.1	0	0	---	0.00	29.905 
04:40	26.1	26.1	26.1	92	24.1	0	0	---	0.00	29.905 
04:45	26.1	26.1	26.1	92	24.1	0	0	---	0.00	29.901 
04:50	26.3	26.3	26.3	93	24.6	0	0	---	0.00	29.901 
04:55	26.4	26.4	26.4	92	24.4	0	0	---	0.00	29.901 
05:00	26.4	26.4	26.4	92	24.4	0	0	---	0.00	29.904 
05:05	26.4	26.4	26.4	92	24.4	0	0	---	0.00	29.904 
05:10	26.6	26.6	26.6	93	24.9	0	0	---	0.00	29.904 
05:15	26.6	26.6	26.6	93	24.9	0	1	248	0.00	29.905 
05:20	26.7	26.7	26.7	93	25.0	0	0	---	0.00	29.905 
05:25	26.9	26.9	26.9	93	25.2	0	0	---	0.00	29.905 
05:30	26.9	26.9	26.9	93	25.2	0	1	248	0.00	29.904 
05:35	27.0	27.0	27.0	93	25.3	0	1	248	0.00	29.904 
05:40	27.0	27.0	27.0	93	25.3	0	1	248	0.00	29.904 
05:45	27.2	27.2	27.2	92	25.2	0	2	248	0.00	29.905 
05:50	27.2	27.2	27.2	92	25.2	0	3	248	0.00	29.905 
05:55	27.3	27.3	27.3	92	25.3	0	2	248	0.00	29.905 
06:00	27.3	27.3	27.3	92	25.3	0	1	248	0.00	29.901 
06:05	27.3	27.3	27.3	92	25.3	0	1	248	0.00	29.901 
06:10	27.5	27.5	27.5	92	25.5	0	2	248	0.00	29.901 
06:15	27.5	27.5	27.5	92	25.5	0	1	248	0.00	29.903 
06:20	27.5	27.5	27.5	91	25.2	0	2	248	0.00	29.903 
06:25	27.6	27.6	27.6	91	25.3	0	1	248	0.00	29.903 
06:30	27.6	27.6	27.6	91	25.3	0	3	248	0.00	29.904 
06:35	27.6	27.6	27.6	91	25.3	0	1	248	0.00	29.904 
06:40	27.6	27.6	27.6	90	25.1	0	2	248	0.00	29.904 
06:45	27.6	27.6	27.6	90	25.1	0	2	248	0.00	29.911 
06:50	27.6	27.6	27.6	90	25.1	0	2	248	0.00	29.911 
06:55	27.8	27.8	27.8	90	25.3	0	1	248	0.00	29.911 
07:00	27.8	27.8	27.8	89	25.0	0	1	248	0.00	29.917 
07:05	27.8	27.8	27.8	89	25.0	0	2	248	0.00	29.917 
07:10	27.8	27.8	27.8	89	25.0	1	2	248	0.00	29.917 
07:15	27.9	27.9	27.9	89	25.1	1	5	225	0.00	29.924 
07:20	27.9	27.9	27.9	89	25.1	0	2	225	0.00	29.924 
07:25	28.1	28.1	28.1	89	25.3	1	3	248	0.00	29.924 
07:30	28.1	28.1	28.1	89	25.3	1	3	248	0.00	29.927 
07:35	28.1	28.1	28.1	89	25.3	1	3	248	0.00	29.927 
07:40	28.2	28.2	28.2	89	25.4	1	2	248	0.00	29.927 
07:45	28.2	28.2	28.2	89	25.4	1	3	248	0.00	29.926 
07:50	28.2	28.2	28.2	89	25.4	1	3	248	0.00	29.926 
07:55	28.2	28.2	28.2	89	25.4	0	2	248	0.00	29.926 
08:00	28.2	28.2	28.2	89	25.4	1	2	248	0.00	29.922 
08:05	28.4	28.4	28.4	89	25.6	0	2	248	0.00	29.922 
08:10	28.4	28.4	28.4	89	25.6	1	3	248	0.00	29.922 
08:15	28.4	28.4	28.4	89	25.6	0	2	248	0.00	29.925 
08:20	28.4	28.4	28.4	89	25.6	0	2	112	0.00	29.925 
08:25	28.5	28.5	28.5	89	25.7	0	3	248	0.00	29.925 
08:30	28.5	28.5	28.5	89	25.7	0	2	248	0.00	29.936 
08:35	28.5	28.5	28.5	89	25.7	0	2	248	0.00	29.936 
08:40	28.5	28.5	28.5	89	25.7	0	1	248	0.00	29.936 
08:45	28.5	28.5	28.5	89	25.7	0	3	248	0.00	29.950 
08:50	28.5	28.5	28.5	89	25.7	1	3	248	0.00	29.950 
08:55	28.5	28.5	28.5	89	25.7	0	4	248	0.00	29.950 
09:00	28.5	28.5	28.5	89	25.7	0	2	248	0.00	29.945 
09:05	28.5	28.5	28.5	89	25.7	0	2	248	0.00	29.945 
09:10	28.5	28.5	28.5	89	25.7	0	2	248	0.00	29.945 
09:15	28.5	28.5	28.5	89	25.7	1	3	248	0.00	29.948 
09:20	28.7	28.7	28.7	89	25.9	0	2	248	0.00	29.948 
09:25	28.7	28.7	28.7	89	25.9	0	2	248	0.00	29.948 
09:30	28.7	28.7	28.7	89	25.9	1	6	248	0.00	29.951 
09:35	28.7	28.7	28.7	89	25.9	1	3	270	0.00	29.951 
09:40	28.8	28.8	28.8	89	26.0	0	2	270	0.00	29.951 
09:45	28.8	28.8	28.8	89	26.0	1	4	270	0.00	29.955 
09:50	28.8	28.8	28.8	89	26.0	1	3	248	0.00	29.955 
09:55	28.8	28.8	28.8	89	26.0	0	3	248	0.00	29.955 
10:00	29.0	29.0	29.0	89	26.2	0	3	248	0.00	29.956 
10:05	29.1	29.1	29.1	89	26.3	1	2	248	0.00	29.956 
10:10	29.3	29.3	29.3	89	26.5	0	1	248	0.00	29.956 
10:15	29.3	29.3	29.3	89	26.5	0	3	248	0.00	29.961 
10:20	29.4	29.4	29.4	89	26.6	0	2	248	0.00	29.961 
10:25	29.5	29.5	29.5	89	26.7	0	1	248	0.00	29.961 
10:30	29.7	29.7	29.7	89	26.9	0	2	248	0.00	29.960 
10:35	29.8	29.8	29.8	89	27.0	0	2	248	0.00	29.960 
10:40	30.1	30.1	30.1	88	27.0	0	1	248	0.00	29.960 
10:45	30.1	30.1	30.1	88	27.0	1	3	248	0.00	29.959 
10:50	30.1	30.1	30.1	88	27.0	0	3	248	0.00	29.959 
10:55	30.1	30.1	30.1	88	27.0	1	4	248	0.00	29.959 
11:00	29.8	29.8	29.8	88	26.7	0	3	68	0.00	29.960 
11:05	30.0	30.0	30.0	88	26.9	0	3	225	0.00	29.960 
11:10	30.3	30.3	30.3	88	27.2	0	1	225	0.00	29.960 
11:15	30.4	30.4	30.4	88	27.3	0	1	225	0.00	29.956 
11:20	30.4	30.4	30.4	88	27.3	0	2	225	0.00	29.956 
11:25	30.4	30.4	30.4	87	27.0	1	3	90	0.00	29.956 
11:30	30.3	30.3	30.3	87	26.9	0	1	90	0.00	29.955 
11:35	30.3	30.3	30.3	87	26.9	1	2	270	0.00	29.955 
11:40	30.3	30.3	30.3	87	26.9	0	2	270	0.00	29.955 
11:45	30.1	30.1	30.1	86	26.4	1	5	112	0.00	29.962 
11:50	30.1	30.1	30.1	86	26.4	1	3	270	0.00	29.962 
11:55	30.3	30.3	30.3	86	26.6	0	2	270	0.00	29.962 
12:00	30.3	30.3	30.3	86	26.6	0	3	270	0.00	29.953 
12:05	30.4	30.4	30.4	85	26.4	1	3	112	0.00	29.953 
12:10	30.4	30.4	30.4	85	26.4	1	3	270	0.00	29.953 
12:15	30.4	30.4	30.4	85	26.4	0	3	270	0.00	29.954 
12:20	30.4	30.4	30.4	85	26.4	1	3	68	0.00	29.954 
12:25	30.4	30.4	30.4	85	26.4	1	4	68	0.00	29.954 
12:30	30.4	30.4	30.4	84	26.2	1	3	90	0.00	29.942 
12:35	30.4	30.4	30.4	84	26.2	1	6	90	0.00	29.942 
12:40	30.6	30.6	30.6	84	26.4	1	6	90	0.00	29.942 
12:45	30.6	30.6	30.6	84	26.4	1	4	112	0.00	29.937 
12:50	30.6	30.6	30.6	85	26.6	1	2	112	0.00	29.937 
12:55	30.7	30.7	30.7	85	26.7	0	2	112	0.00	29.937 
13:00	30.9	30.9	30.9	85	26.9	0	2	112	0.00	29.934 
13:05	31.2	31.2	31.2	85	27.2	0	2	112	0.00	29.934 
13:10	31.3	31.3	31.3	84	27.0	0	2	112	0.00	29.934 
13:15	31.5	31.5	31.5	84	27.2	0	1	112	0.00	29.934 
13:20	31.5	31.5	31.5	84	27.2	0	2	112	0.00	29.934 
13:25	31.6	31.6	31.6	84	27.3	0	3	112	0.00	29.934 
13:30	31.5	31.5	31.5	83	26.9	1	4	90	0.00	29.927 
13:35	31.5	31.5	31.5	83	26.9	1	3	90	0.00	29.927 
13:40	31.6	31.6	31.6	83	27.0	0	3	90	0.00	29.927 
13:45	31.8	31.8	31.8	83	27.2	0	0	---	0.00	29.925 
13:50	31.8	31.8	31.8	83	27.2	0	2	90	0.00	29.925 
13:55	31.9	31.9	31.9	83	27.3	0	2	90	0.00	29.925 
14:00	31.8	31.8	31.8	82	26.9	1	3	90	0.00	29.920 
14:05	31.8	31.8	31.8	83	27.2	0	3	90	0.00	29.920 
14:10	31.8	31.8	31.8	82	26.9	0	1	90	0.00	29.920 
14:15	31.8	31.8	31.8	83	27.2	0	2	90	0.00	29.917 
14:20	31.9	31.9	31.9	83	27.3	0	1	90	0.00	29.917 
14:25	32.2	32.2	32.2	82	27.3	1	3	90	0.00	29.917 
14:30	32.2	32.2	32.2	81	27.0	1	4	68	0.00	29.915 
14:35	32.2	32.2	32.2	81	27.0	1	3	68	0.00	29.915 
14:40	32.2	32.2	32.2	81	27.0	0	3	68	0.00	29.915 
14:45	32.2	32.2	32.2	81	27.0	0	2	68	0.00	29.916 
14:50	32.2	32.2	32.2	81	27.0	1	3	68	0.00	29.916 
14:55	32.4	32.4	32.4	81	27.2	0	2	68	0.00	29.916 
15:00	32.4	32.4	32.4	81	27.2	1	3	112	0.00	29.912 
15:05	32.4	32.4	32.4	80	26.9	1	2	112	0.00	29.912 
15:10	32.5	32.5	32.5	80	27.0	1	2	112	0.00	29.912 
15:15	32.5	32.5	32.5	80	27.0	1	3	112	0.00	29.916 
15:20	32.5	32.5	32.5	80	27.0	0	3	112	0.00	29.916 
15:25	32.5	32.5	32.5	80	27.0	0	2	112	0.00	29.916 
15:30	32.5	32.5	32.5	79	26.7	1	3	112	0.00	29.919 
15:35	32.5	32.5	32.5	80	27.0	0	3	112	0.00	29.919 
15:40	32.5	32.5	32.5	80	27.0	1	2	112	0.00	29.919 
15:45	32.5	32.5	32.5	80	27.0	1	4	270	0.00	29.921 
15:50	32.5	32.5	32.5	80	27.0	0	2	270	0.00	29.921 
15:55	32.5	32.5	32.5	80	27.0	0	2	270	0.00	29.921 
16:00	32.5	32.5	32.5	80	27.0	0	3	90	0.00	29.925 
16:05	32.5	32.5	32.5	79	26.7	1	3	90	0.00	29.925 
16:10	32.5	32.5	32.5	80	27.0	0	4	90	0.00	29.925 
16:15	32.5	32.5	32.5	80	27.0	0	3	22	0.00	29.929 
16:20	32.5	32.5	32.5	80	27.0	1	2	22	0.00	29.929 
16:25	32.5	32.5	32.5	80	27.0	0	1	22	0.00	29.929 
16:30	32.5	32.5	32.5	80	27.0	0	1	22	0.00	29.932 
16:35	32.5	32.5	32.5	80	27.0	0	3	135	0.00	29.932 
16:40	32.5	32.5	32.5	80	27.0	0	2	135	0.00	29.932 
16:45	32.5	32.5	32.5	80	27.0	0	1	135	0.00	29.934 
16:50	32.7	32.7	32.7	80	27.2	0	3	135	0.00	29.934 
16:55	32.7	32.7	32.7	80	27.2	0	1	135	0.00	29.934 
17:00	32.7	32.7	32.7	80	27.2	0	0	---	0.00	29.937 
17:05	32.7	32.7	32.7	81	27.5	0	1	135	0.00	29.937 
17:10	32.7	32.7	32.7	81	27.5	0	0	---	0.00	29.937 
17:15	32.7	32.7	32.7	81	27.5	0	2	135	0.00	29.938 
17:20	32.7	32.7	32.7	81	27.5	0	2	135	0.00	29.938 
17:25	32.7	32.7	32.7	81	27.5	0	1	135	0.00	29.938 
17:30	32.5	32.5	32.5	81	27.3	0	0	---	0.00	29.943 
17:35	32.5	32.5	32.5	81	27.3	0	1	135	0.00	29.943 
17:40	32.5	32.5	32.5	82	27.6	0	0	---	0.00	29.943 
17:45	32.5	32.5	32.5	83	27.9	0	0	---	0.00	29.944 
17:50	32.4	32.4	32.4	83	27.8	0	0	---	0.00	29.944 
17:55	32.4	32.4	32.4	83	27.8	0	0	---	0.00	29.944 
18:00	32.2	32.2	32.2	83	27.6	0	0	---	0.00	29.948 
18:05	32.2	32.2	32.2	84	27.9	0	0	---	0.00	29.948 
18:10	32.1	32.1	32.1	84	27.8	0	0	---	0.00	29.948 
18:15	32.1	32.1	32.1	84	27.8	0	0	---	0.00	29.948 
18:20	31.9	31.9	31.9	84	27.6	0	0	---	0.00	29.948 
18:25	31.9	31.9	31.9	84	27.6	0	0	---	0.00	29.948 
18:30	31.9	31.9	31.9	84	27.6	0	0	---	0.00	29.953 
18:35	31.9	31.9	31.9	84	27.6	0	0	---	0.00	29.953 
18:40	31.8	31.8	31.8	84	27.5	0	0	---	0.00	29.953 
18:45	31.8	31.8	31.8	84	27.5	0	0	---	0.00	29.960 
18:50	31.8	31.8	31.8	85	27.8	0	0	---	0.00	29.960 
18:55	31.8	31.8	31.8	85	27.8	0	0	---	0.00	29.960 
19:00	31.8	31.8	31.8	85	27.8	0	0	---	0.00	29.956 
19:05	31.8	31.8	31.8	85	27.8	0	0	---	0.00	29.956 
19:10	31.8	31.8	31.8	86	28.1	0	0	---	0.00	29.956 
19:15	31.8	31.8	31.8	86	28.1	0	0	---	0.00	29.956 
19:20	31.8	31.8	31.8	86	28.1	0	0	---	0.00	29.956 
19:25	31.8	31.8	31.8	86	28.1	0	0	---	0.00	29.956 
19:30	31.8	31.8	31.8	87	28.4	0	0	---	0.00	29.957 
19:35	31.8	31.8	31.8	87	28.4	0	0	---	0.00	29.957 
19:40	31.8	31.8	31.8	87	28.4	0	0	---	0.00	29.957 
19:45	31.6	31.6	31.6	87	28.2	0	0	---	0.00	29.957 
19:50	31.6	31.6	31.6	88	28.5	0	0	---	0.00	29.957 
19:55	31.6	31.6	31.6	88	28.5	0	0	---	0.00	29.957 
20:00	31.5	31.5	31.5	88	28.4	0	0	---	0.00	29.956 
20:05	31.5	31.5	31.5	88	28.4	0	0	---	0.00	29.956 
20:10	31.5	31.5	31.5	88	28.4	0	0	---	0.00	29.956 
20:15	31.5	31.5	31.5	88	28.4	0	0	---	0.00	29.958 
20:20	31.3	31.3	31.3	88	28.2	0	0	---	0.00	29.958 
20:25	31.3	31.3	31.3	88	28.2	0	0	---	0.00	29.958 
20:30	31.3	31.3	31.3	89	28.4	0	0	---	0.00	29.960 
20:35	31.3	31.3	31.3	89	28.4	0	0	---	0.00	29.960 
20:40	31.3	31.3	31.3	89	28.4	0	0	---	0.00	29.960 
20:45	31.3	31.3	31.3	89	28.4	0	0	---	0.00	29.956 
20:50	31.3	31.3	31.3	89	28.4	0	0	---	0.00	29.956 
20:55	31.3	31.3	31.3	89	28.4	0	0	---	0.00	29.956 
21:00	31.3	31.3	31.3	89	28.4	0	0	---	0.00	29.959 
21:05	31.3	31.3	31.3	89	28.4	0	0	---	0.00	29.959 
21:10	31.3	31.3	31.3	89	28.4	0	0	---	0.00	29.959 
21:15	31.3	31.3	31.3	89	28.4	0	0	---	0.00	29.959 
21:20	31.3	31.3	31.3	89	28.4	0	0	---	0.00	29.959 
21:25	31.3	31.3	31.3	90	28.7	0	0	---	0.00	29.959 
21:30	31.5	31.5	31.5	90	28.9	0	0	---	0.00	29.959 
21:35	31.5	31.5	31.5	90	28.9	0	1	135	0.00	29.959 
21:40	31.6	31.6	31.6	90	29.0	0	1	135	0.00	29.959 
21:45	31.6	31.6	31.6	90	29.0	0	1	135	0.00	29.960 
21:50	31.8	31.8	31.8	90	29.2	0	0	---	0.00	29.960 
21:55	31.8	31.8	31.8	90	29.2	0	0	---	0.00	29.960 
22:00	31.8	31.8	31.8	90	29.2	0	2	135	0.00	29.959 
22:05	31.9	31.9	31.9	90	29.3	0	2	135	0.00	29.959 
22:10	31.9	31.9	31.9	90	29.3	0	2	135	0.00	29.959 
22:15	31.9	31.9	31.9	91	29.6	0	3	248	0.00	29.958 
22:20	32.1	32.1	32.1	91	29.8	0	1	248	0.00	29.958 
22:25	32.1	32.1	32.1	91	29.8	0	2	248	0.00	29.958 
22:30	32.1	32.1	32.1	91	29.8	0	1	248	0.00	29.957 
22:35	32.1	32.1	32.1	91	29.8	0	2	248	0.00	29.957 
22:40	32.1	32.1	32.1	91	29.8	1	3	248	0.00	29.957 
22:45	32.1	32.1	32.1	91	29.8	0	2	248	0.00	29.953 
22:50	32.1	32.1	32.1	91	29.8	0	2	248	0.00	29.953 
22:55	32.2	32.2	32.2	91	29.9	0	1	248	0.00	29.953 
23:00	32.2	32.2	32.2	91	29.9	1	3	248	0.00	29.959 
23:05	32.2	32.2	32.2	92	30.1	1	2	248	0.00	29.959 
23:10	32.2	32.2	32.2	92	30.1	0	2	248	0.00	29.959 
23:15	32.2	32.2	32.2	92	30.1	0	1	248	0.00	29.960 
23:20	32.2	32.2	32.2	92	30.1	0	2	248	0.00	29.960 
23:25	32.2	32.2	32.2	92	30.1	0	2	248	0.00	29.960 
23:30	32.2	32.2	32.2	92	30.1	1	3	248	0.00	29.962 
23:35	32.2	32.2	32.2	92	30.1	1	3	248	0.00	29.962 
23:40	32.2	32.2	32.2	92	30.1	0	2	248	0.00	29.962 
23:45	32.2	32.2	32.2	92	30.1	0	1	248	0.00	29.961 
23:50	32.2	32.2	32.2	92	30.1	0	2	248	0.00	29.961 
23:55	32.2	32.2	32.2	92	30.1	1	2	248	0.00	29.961 

CoCoRaHS
IN-AL-39
A2 Web Hosting
Creative Commons License
GoDaddy
search engine by freefind advanced

loaded 2018-11-17 12:12:02 • last modified 2010-11-18 10:43:29
Privacy PolicyDisclaimer
• wx.awcolley.com is powered by PmWiki v.2002016 •
• all content (unless otherwise noted) © 2018 A W Colley